Corunna, Indiana
Current Conditions -  °F | °C
As of 12:35 PM on Friday 21 Nov 2014 (Local Time) from KGWB Reporting Station
Clear Clear  
Wind Chill: 28°   Ceiling: Unl
Heat Index: 28°   Visibility: 10mi
Dew Point: 12°   Wind: 3mph
Humidity: 51%   Direction: 210°SSW
Pressure: 30.48"   Gusts: NA
Location:  41.44°N, 85.15°W
Report Text: KGWB 211735Z AUTO 21003KT 10SM CLR M02/M11 A3048 RMK AO2
Loading
Personal Weather Stations






























Interactive Weather Map New forecast layout! Learn more

10-Day Weather Forecast

Advertisements
Track Severe Weather on mobile